Terminal Aerodrome Forecast
Issued by NWS

Home | Current Version | Previous Version | Text Only | Print | Product List | Glossary On
Versions: 1 2 3 4 5 6 7 8 9 10 11 12 13 14 15 16 17
000
FTAK31 PANC 241138
TAFADU
TAF
PADU 241138Z 2412/2512 15010KT P6SM -RA OVC025
      TEMPO 2412/2416 OVC035
     FM241700 15014G22KT P6SM -RA BKN015
     FM250300 15018G26KT 5SM -RA BR SCT008 OVC012=

USA.gov is the U.S. government's official web portal to all federal, state and local government web resources and services.